createdAt,value
2023-01-18T08:09:07.193Z,25.00
2023-01-18T13:48:07.831Z,0.00
2023-01-18T13:49:07.724Z,0.00
2023-01-18T13:50:07.618Z,0.00
2023-01-18T13:51:09.072Z,0.00
2023-01-18T13:52:07.383Z,6.22
2023-01-18T13:53:07.271Z,18.06
2023-01-18T13:54:07.148Z,25.00
2023-01-18T13:55:07.111Z,25.00
2023-01-18T13:56:06.913Z,25.00
2023-01-18T13:57:06.815Z,30.95
2023-01-18T13:58:06.702Z,25.00
2023-01-18T13:59:06.599Z,25.00
2023-01-18T14:00:06.460Z,25.00
2023-01-18T14:01:06.379Z,25.00
2023-01-18T14:02:06.309Z,25.00
2023-01-18T14:03:06.106Z,25.31
2023-01-18T14:04:05.987Z,25.00
2023-01-18T14:05:05.898Z,25.90
2023-01-18T14:06:05.770Z,25.26
2023-01-18T14:07:05.722Z,26.06
2023-01-18T14:08:05.635Z,25.94
2023-01-18T14:09:05.532Z,25.54
2023-01-18T14:15:05.816Z,25.93
2023-01-18T14:18:07.282Z,26.94
2023-01-18T15:43:55.768Z,103.38
2023-01-18T15:44:55.660Z,101.18
2023-01-18T15:45:55.610Z,98.22
2023-01-18T18:39:48.233Z,224.90
2023-01-18T18:40:48.199Z,228.44
2023-01-18T18:41:48.247Z,227.45
2023-01-18T18:43:00.752Z,225.91
2023-01-18T18:43:49.047Z,226.12
2023-01-18T18:44:47.944Z,226.51
2023-01-18T18:45:47.851Z,226.95
2023-01-18T18:46:47.820Z,228.44
2023-01-18T18:47:47.698Z,229.03
2023-01-18T18:48:47.604Z,230.86
2023-01-18T18:49:47.509Z,232.63
2023-01-18T18:50:47.443Z,230.93
2023-01-18T18:51:47.379Z,232.46
2023-01-18T18:52:47.350Z,233.20
2023-01-18T18:53:47.306Z,234.63
2023-01-18T18:54:47.256Z,232.35
2023-01-18T18:55:47.208Z,231.71
2023-01-18T18:56:47.167Z,234.95
2023-01-18T18:57:47.151Z,233.12
2023-01-18T18:58:47.092Z,234.25
2023-01-18T18:59:47.055Z,232.34
2023-01-18T19:00:47.052Z,234.86
2023-01-18T19:01:47.023Z,234.57
2023-01-18T19:02:46.999Z,234.95
2023-01-18T19:03:46.910Z,235.83
2023-01-18T19:04:46.854Z,235.48
2023-01-18T19:05:46.800Z,235.32
2023-01-18T19:06:46.745Z,235.49
2023-01-18T19:07:46.701Z,236.58
2023-01-18T19:08:46.642Z,236.57
2023-01-18T19:09:46.657Z,238.24
2023-01-18T19:10:46.570Z,238.70
2023-01-18T19:11:54.326Z,241.37
2023-01-18T19:12:47.423Z,241.47
2023-01-18T19:13:48.500Z,240.68
2023-01-18T19:14:46.234Z,238.55
2023-01-18T19:15:46.220Z,239.85
2023-01-18T19:16:46.073Z,242.35
2023-01-18T19:17:45.977Z,241.04
2023-01-18T19:18:45.887Z,243.26
2023-01-18T19:19:45.806Z,242.90
2023-01-18T19:20:45.715Z,241.38
2023-01-18T19:21:45.624Z,243.14
2023-01-18T19:22:45.571Z,245.18
2023-01-18T19:23:45.922Z,244.88
2023-01-18T19:25:46.397Z,245.39
2023-01-18T21:25:36.333Z,249.14
2023-01-18T21:26:36.245Z,248.38
2023-01-18T21:27:36.233Z,246.91
2023-01-18T21:28:36.099Z,248.17
2023-01-18T21:29:36.049Z,246.78
2023-01-18T21:30:35.949Z,245.70
2023-01-18T21:31:35.967Z,247.43
2023-01-18T21:32:35.794Z,247.89
2023-01-18T21:33:35.743Z,247.57
2023-01-18T21:34:35.656Z,246.46
2023-01-18T21:35:35.567Z,249.24
2023-01-18T22:16:32.498Z,248.13
2023-01-18T22:17:32.425Z,249.37
2023-01-18T22:18:32.375Z,247.46
2023-01-18T22:19:32.258Z,247.09
2023-01-18T22:20:32.954Z,250.00
2023-01-18T22:21:32.129Z,243.87
2023-01-18T22:22:32.035Z,248.32
2023-01-18T22:23:31.963Z,249.34
2023-01-18T22:24:31.965Z,245.11
2023-01-18T22:25:31.811Z,246.30
2023-01-18T22:26:31.827Z,245.02
2023-01-18T22:27:31.668Z,247.78
2023-01-18T22:28:32.456Z,247.15
2023-01-18T22:29:31.520Z,247.16
2023-01-18T22:30:31.561Z,248.93
2023-01-18T22:31:31.364Z,248.17
2023-01-18T22:32:31.303Z,245.76
2023-01-18T22:33:31.215Z,247.09
2023-01-18T22:34:31.169Z,245.92
2023-01-18T22:35:31.167Z,246.74
2023-01-18T22:36:31.026Z,247.17
2023-01-18T22:37:31.473Z,249.90
2023-01-18T22:38:30.875Z,249.05
2023-01-18T22:39:30.842Z,246.78
2023-01-18T22:40:30.747Z,250.00
2023-01-18T22:41:30.679Z,250.00
2023-01-18T22:42:30.603Z,248.22
2023-01-18T22:43:30.526Z,247.75
2023-01-18T22:44:30.447Z,244.29
2023-01-18T22:45:30.378Z,246.33
2023-01-18T22:46:30.351Z,247.15
2023-01-18T22:47:30.229Z,250.00
2023-01-18T22:48:30.167Z,246.34
2023-01-18T22:49:30.110Z,249.80
2023-01-18T22:50:30.028Z,247.22
2023-01-18T22:51:29.954Z,247.66
2023-01-18T22:52:29.889Z,244.84
2023-01-18T22:53:29.827Z,244.91
2023-01-18T22:54:29.746Z,246.87
2023-01-18T22:55:29.701Z,249.84
2023-01-18T22:56:29.618Z,246.72
2023-01-18T22:57:29.560Z,248.07
2023-01-18T22:58:29.502Z,249.34
2023-01-18T22:59:29.414Z,248.79
2023-01-18T23:00:29.358Z,248.53
2023-01-18T23:01:29.301Z,246.13
2023-01-18T23:02:29.196Z,248.61
2023-01-18T23:03:29.118Z,247.14
2023-01-18T23:04:29.051Z,248.29
2023-01-18T23:05:28.970Z,247.65
2023-01-18T23:06:28.941Z,249.16
2023-01-18T23:07:28.914Z,247.26
2023-01-18T23:08:28.773Z,248.05
2023-01-18T23:09:28.687Z,245.03
2023-01-18T23:10:28.625Z,245.95
2023-01-18T23:11:28.535Z,246.71
2023-01-18T23:12:28.465Z,246.58
2023-01-18T23:13:28.403Z,246.09
2023-01-18T23:14:28.337Z,246.32
2023-01-18T23:15:28.351Z,248.88
2023-01-18T23:16:28.171Z,247.07
2023-01-18T23:17:28.105Z,245.87
2023-01-18T23:18:28.032Z,246.63
2023-01-18T23:19:29.606Z,248.53
2023-01-18T23:20:28.032Z,247.44
2023-01-18T23:21:27.939Z,247.61
2023-01-18T23:22:27.990Z,246.53
2023-01-18T23:23:27.855Z,247.57
2023-01-18T23:24:27.736Z,246.91
2023-01-18T23:25:27.652Z,247.19
2023-01-18T23:26:27.578Z,247.86
2023-01-18T23:27:27.503Z,250.00
2023-01-18T23:28:27.447Z,246.96
2023-01-18T23:29:27.383Z,247.04
2023-01-18T23:30:27.305Z,248.22
2023-01-18T23:31:27.333Z,247.60
2023-01-18T23:32:27.169Z,246.16
2023-01-18T23:33:27.106Z,247.05
2023-01-18T23:34:27.039Z,247.98
2023-01-18T23:35:26.961Z,249.09
2023-01-18T23:36:26.889Z,246.87
2023-01-18T23:37:26.826Z,245.03
2023-01-18T23:38:26.755Z,243.90
2023-01-18T23:39:26.752Z,245.85
2023-01-18T23:40:26.602Z,245.91
2023-01-18T23:41:26.518Z,247.47
2023-01-18T23:42:26.456Z,246.15
2023-01-18T23:43:26.377Z,248.46
2023-01-18T23:44:26.301Z,248.79
2023-01-18T23:45:26.968Z,250.00
2023-01-18T23:46:27.069Z,247.65
2023-01-18T23:47:26.107Z,247.45
2023-01-18T23:48:26.027Z,246.77
2023-01-18T23:49:25.958Z,247.44
2023-01-18T23:50:25.901Z,250.00
2023-01-18T23:51:27.912Z,248.42
2023-01-18T23:52:25.761Z,246.07
2023-01-18T23:53:25.706Z,245.93
2023-01-18T23:54:25.640Z,247.63
2023-01-18T23:55:25.589Z,248.07
2023-01-18T23:56:25.518Z,246.58
